Terminal Aerodrome Forecast
Issued by NWS

Home | Current Version | Previous Version | Text Only | Print | Product List | Glossary On
Versions: 1 2 3 4 5 6 7 8 9 10 11 12 13 14
000
FTUS43 KSGF 050520
TAFJLN
TAF
KJLN 050520Z 0506/0606 VRB05KT P6SM VCTS BKN050CB OVC100
      TEMPO 0506/0510 4SM -TSRA OVC040CB
     FM051700 20008KT P6SM VCTS OVC040CB=

USA.gov is the U.S. government's official web portal to all federal, state and local government web resources and services.